Vancouver Sea Island Ccg, British Columbia

2:06 PM PST on February 12, 2016 (GMT -0800)
Vancouver International | | Change Station
CLOSE
Current Station
Airport
Location: Vancouver,
Elevation: 13 ft
Nearby Weather Stations

Elev 13 ft 49.18 °N, 123.17 °W | Updated 6 minutes ago

Mostly Cloudy
Mostly Cloudy
54 °F
Feels Like 54 °F
N
16
Wind Variable Wind from South
Gusts 23 mph

Today
High -- | Low -- °F
--% Chance of Precip.
Yesterday
High -- | Low -- °F
Precip. -- in
Pressure 30.05 in
Visibility 20.0 miles
Clouds Few 2000 ft
Scattered Clouds 2500 ft
Mostly Cloudy 13000 ft
Mostly Cloudy 23000 ft
Dew Point 43 °F
Humidity 67%
Rainfall 0.00 in
Snow Depth Not available.
7:27 AM 5:27 PM
Waxing Crescent, 24% visible
METAR CYVR 122200Z 19014G20KT 20SM FEW020 SCT025 BKN130 BKN230 12/06 A3004 RMK CF1SC2AC2CI1 SLP175
Pressure 30.05 in
Visibility 20.0 miles
Clouds Few 2000 ft
Scattered Clouds 2500 ft
Mostly Cloudy 13000 ft
Mostly Cloudy 23000 ft
Dew Point 43 °F
Humidity 67%
Rainfall 0.00 in
Snow Depth Not available.
7:27 AM 5:27 PM
Waxing Crescent, 24% visible
METAR CYVR 122200Z 19014G20KT 20SM FEW020 SCT025 BKN130 BKN230 12/06 A3004 RMK CF1SC2AC2CI1 SLP175

10-Day Weather Forecast

Almanac

Astronomy

Feb. 12, 2016 Rise Set
Actual Time
Civil Twilight
Nautical Twilight
Astronomical Twilight
Moon
Length of Visible Light
Length of Day
Tomorrow will be .
, % of the Moon is Illuminated

Today's Extremes

Country Highs Country Lows

Community

WunderPhotos

Upload Photos

1,892,411 photos uploaded!

WunderBlog® & News

Nearby

Air Quality

  Air Quality AQ Index Pollutant
Not available.

Snow Depth

Station Depth Elevation

Earthquake Activity

City Distance Mag. Time & Date
Minimum magnitude displayed is 2.5.

Coastal Water Temperatures

Place Temperature

Stations

Nearby Weather Stations

Station Location Temp. Windchill Dew Point Humidity Wind Precip. Elev Updated Type
                   

Watches & Warnings

There are currently no watches in effect.